Time;durP1;ratioP1;P1;durP2;ratioP2;P2;SDS_P1;SDS_P2;PMS_P1;PMS_P2;Temp;Humidity;BMP_temperature;BMP_pressure;BME280_temperature;BME280_humidity;BME280_pressure;Samples;Min_cycle;Max_cycle;Signal;HPM_P1;HPM_P2
2023/07/13 00:01:03;;;;;;;;;;;;;;;23.83;50.64;101304.25;5051477;28;19917;-73
2023/07/13 00:03:34;;;;;;;;;;;;;;;23.83;50.51;101301.53;5088287;28;19923;-73
2023/07/13 00:06:00;;;;;;;;;;;;;;;23.82;50.60;101291.69;5050439;28;19972;-73
2023/07/13 00:08:25;;;;;;;;;;;;;;;23.82;50.36;101286.28;5052649;28;19913;-73
2023/07/13 00:10:54;;;;;;;;;;;;;;;23.80;50.60;101294.63;5086983;28;19952;-73
2023/07/13 00:13:19;;;;;;;;;;;;;;;23.80;50.50;101291.91;5051158;28;20008;-73
2023/07/13 00:15:44;;;;;;;;;;;;;;;23.80;50.52;101300.06;5083802;28;19959;-73
2023/07/13 00:18:10;;;;;;;;;;;;;;;23.80;50.34;101293.78;5052976;28;20035;-73
2023/07/13 00:20:35;;;;;;;;;;;;;;;23.79;50.47;101292.94;5047401;28;19917;-73
2023/07/13 00:23:00;;;;;;;;;;;;;;;23.79;50.49;101298.38;5048466;28;19921;-73
2023/07/13 00:25:28;;;;;;;;;;;;;;;23.78;50.46;101293.97;5049006;28;19914;-73
2023/07/13 00:27:53;;;;;;;;;;;;;;;23.78;50.43;101298.53;5051380;28;19924;-73
2023/07/13 00:30:19;;;;;;;;;;;;;;;23.77;50.51;101302.31;5054522;28;19913;-74
2023/07/13 00:32:44;;;;;;;;;;;;;;;23.78;50.62;101301.25;5050383;28;19920;-73
2023/07/13 00:35:09;;;;;;;;;;;;;;;23.77;50.21;101302.31;5035816;28;19913;-73
2023/07/13 00:37:35;;;;;;;;;;;;;;;23.77;50.45;101305.03;5053350;28;19917;-73
2023/07/13 00:40:01;;;;;;;;;;;;;;;23.76;50.48;101306.91;5050745;28;20012;-73
2023/07/13 00:42:26;;;;;;;;;;;;;;;23.75;50.30;101307.94;5049789;28;19940;-73
2023/07/13 00:45:27;;;;;;;;;;;;;;;23.75;50.49;101309.81;5054854;28;19936;-73
2023/07/13 00:47:52;;;;;;;;;;;;;;;23.74;50.56;101297.25;5079854;28;19920;-73
2023/07/13 00:50:17;;;;;;;;;;;;;;;23.73;50.46;101295.56;5051585;28;19962;-73
2023/07/13 00:52:44;;;;;;;;;;;;;;;23.71;50.46;101298.50;5050228;28;19922;-72
2023/07/13 00:55:09;;;;;;;;;;;;;;;23.71;50.53;101300.38;5051290;28;20798;-73
2023/07/13 00:57:35;;;;;;;;;;;;;;;23.68;50.35;101299.69;5084659;28;19912;-73
2023/07/13 01:00:06;;;;;;;;;;;;;;;23.67;50.22;101302.63;5031913;28;20024;-72
2023/07/13 01:02:32;;;;;;;;;;;;;;;23.67;50.56;101311.59;5052645;28;20008;-72
2023/07/13 01:04:57;;;;;;;;;;;;;;;23.66;50.43;101301.78;5084794;28;19917;-73
2023/07/13 01:07:22;;;;;;;;;;;;;;;23.65;50.45;101305.50;5084811;28;20398;-72
2023/07/13 01:09:47;;;;;;;;;;;;;;;23.65;50.45;101305.50;5050461;28;19913;-73
2023/07/13 01:12:13;;;;;;;;;;;;;;;23.65;50.43;101315.53;5053447;28;19943;-73
2023/07/13 01:14:39;;;;;;;;;;;;;;;23.63;50.27;101307.56;5033525;28;19913;-73
2023/07/13 01:17:04;;;;;;;;;;;;;;;23.63;50.32;101312.13;5082480;28;19921;-73
2023/07/13 01:19:35;;;;;;;;;;;;;;;23.62;50.52;101311.31;5050994;28;19943;-73
2023/07/13 01:22:01;;;;;;;;;;;;;;;23.62;50.22;101310.47;5045842;28;20028;-73
2023/07/13 01:24:26;;;;;;;;;;;;;;;23.61;50.41;101306.03;5051024;28;19976;-71
2023/07/13 01:26:51;;;;;;;;;;;;;;;23.60;50.27;101305.19;5046550;28;19917;-72
2023/07/13 01:29:16;;;;;;;;;;;;;;;23.61;50.47;101316.91;5053622;28;19951;-72
2023/07/13 01:31:44;;;;;;;;;;;;;;;23.60;50.23;101315.22;5050608;28;20447;-72
2023/07/13 01:34:09;;;;;;;;;;;;;;;23.60;50.30;101315.22;5051163;28;19952;-72
2023/07/13 01:36:35;;;;;;;;;;;;;;;23.58;50.28;101310.00;5051343;28;19920;-72
2023/07/13 01:39:01;;;;;;;;;;;;;;;23.59;50.28;101302.69;5052347;28;19913;-72
2023/07/13 01:41:26;;;;;;;;;;;;;;;23.58;50.36;101311.88;5031788;28;19920;-72
2023/07/13 01:43:51;;;;;;;;;;;;;;;23.58;50.23;101310.00;5033225;28;19975;-72
2023/07/13 01:46:16;;;;;;;;;;;;;;;23.57;50.40;101310.16;5085691;28;19920;-72
2023/07/13 01:48:42;;;;;;;;;;;;;;;23.58;50.38;101311.88;5046110;28;19913;-71
2023/07/13 01:51:07;;;;;;;;;;;;;;;23.58;50.19;101311.88;5051641;28;19971;-72
2023/07/13 01:53:32;;;;;;;;;;;;;;;23.57;50.25;101300.16;5046420;28;19925;-73
2023/07/13 01:55:57;;;;;;;;;;;;;;;23.55;50.17;101296.78;5050123;28;20444;-72
2023/07/13 01:58:23;;;;;;;;;;;;;;;23.56;50.13;101300.34;5051642;28;20275;-72
2023/07/13 02:00:49;;;;;;;;;;;;;;;23.56;50.23;101303.06;5051553;28;19917;-72
2023/07/13 02:03:17;;;;;;;;;;;;;;;23.56;50.21;101297.63;5052671;28;19921;-71
2023/07/13 02:05:43;;;;;;;;;;;;;;;23.55;50.36;101306.81;5051968;28;19913;-72
2023/07/13 02:08:08;;;;;;;;;;;;;;;23.55;50.18;101306.81;5050382;28;19920;-72
2023/07/13 02:10:33;;;;;;;;;;;;;;;23.54;50.12;101308.69;5049096;28;19972;-72
2023/07/13 02:12:59;;;;;;;;;;;;;;;23.54;50.23;101310.56;5052397;28;19917;-72
2023/07/13 02:15:24;;;;;;;;;;;;;;;23.54;50.07;101329.56;5048590;28;19956;-72
2023/07/13 02:17:49;;;;;;;;;;;;;;;23.52;49.85;101312.63;5049613;28;19922;-72
2023/07/13 02:20:15;;;;;;;;;;;;;;;23.53;49.94;101328.69;5047374;28;19951;-72
2023/07/13 02:22:40;;;;;;;;;;;;;;;23.53;50.11;101326.00;5048641;28;20021;-72
2023/07/13 02:25:06;;;;;;;;;;;;;;;23.52;49.86;101323.47;5051382;28;19917;-72
2023/07/13 02:27:31;;;;;;;;;;;;;;;23.52;50.10;101318.88;5048890;28;19917;-72
2023/07/13 02:29:56;;;;;;;;;;;;;;;23.52;50.01;101318.03;5051793;28;19913;-72
2023/07/13 02:32:22;;;;;;;;;;;;;;;23.51;50.09;101317.22;5051497;28;19905;-73
2023/07/13 02:34:47;;;;;;;;;;;;;;;23.50;49.79;101315.53;5051399;28;20385;-73
2023/07/13 02:37:13;;;;;;;;;;;;;;;23.50;50.01;101320.97;5047227;28;19952;-72
2023/07/13 02:39:39;;;;;;;;;;;;;;;23.49;49.98;101319.28;5049298;28;19921;-72
2023/07/13 02:42:04;;;;;;;;;;;;;;;23.50;49.83;101314.69;5047911;28;19919;-72
2023/07/13 02:44:29;;;;;;;;;;;;;;;23.49;50.06;101321.13;5050752;28;19951;-72
2023/07/13 02:46:55;;;;;;;;;;;;;;;23.48;49.99;101323.00;5050032;28;19913;-72
2023/07/13 02:49:20;;;;;;;;;;;;;;;23.49;49.88;101323.84;5080818;28;20420;-72
2023/07/13 02:51:45;;;;;;;;;;;;;;;23.48;49.99;101328.44;5054836;28;19959;-72
2023/07/13 02:54:11;;;;;;;;;;;;;;;23.47;49.91;101326.75;5052068;28;19924;-72
2023/07/13 02:56:38;;;;;;;;;;;;;;;23.46;49.74;101319.66;5053025;28;20290;-72
2023/07/13 02:59:04;;;;;;;;;;;;;;;23.47;49.67;101323.19;5087055;28;19921;-72
2023/07/13 03:01:29;;;;;;;;;;;;;;;23.46;49.79;101325.06;5055137;28;19921;-72
2023/07/13 03:03:55;;;;;;;;;;;;;;;23.46;49.85;101325.06;5054397;28;19917;-72
2023/07/13 03:06:21;;;;;;;;;;;;;;;23.45;49.80;101336.97;5054916;28;19919;-72
2023/07/13 03:08:47;;;;;;;;;;;;;;;23.45;49.73;101331.53;5053708;28;19977;-71
2023/07/13 03:11:16;;;;;;;;;;;;;;;23.44;49.75;101343.41;5084853;28;19917;-72
2023/07/13 03:13:41;;;;;;;;;;;;;;;23.43;49.76;101334.44;5057453;28;19913;-72
2023/07/13 03:16:07;;;;;;;;;;;;;;;23.43;49.76;101342.56;5049725;28;19920;-72
2023/07/13 03:18:32;;;;;;;;;;;;;;;23.42;49.60;101338.19;5053248;28;19921;-72
2023/07/13 03:20:58;;;;;;;;;;;;;;;23.42;49.72;101340.06;5084903;28;20020;-72
2023/07/13 03:23:24;;;;;;;;;;;;;;;23.42;49.79;101343.59;5051794;28;19921;-72
2023/07/13 03:25:50;;;;;;;;;;;;;;;23.41;49.69;101344.66;5087221;28;19917;-72
2023/07/13 03:28:15;;;;;;;;;;;;;;;23.41;49.90;101343.81;5036542;28;19924;-72
2023/07/13 03:30:40;;;;;;;;;;;;;;;23.41;49.69;101347.34;5055131;28;20043;-72
2023/07/13 03:33:06;;;;;;;;;;;;;;;23.41;49.59;101349.22;5066228;28;19921;-72
2023/07/13 03:35:32;;;;;;;;;;;;;;;23.40;49.68;101344.81;5053028;28;19912;-72
2023/07/13 03:37:58;;;;;;;;;;;;;;;23.39;49.60;101352.13;5051875;28;19913;-72
2023/07/13 03:40:25;;;;;;;;;;;;;;;23.40;49.68;101352.94;5053931;28;19929;-72
2023/07/13 03:42:50;;;;;;;;;;;;;;;23.39;49.62;101354.00;5048849;28;19921;-72
2023/07/13 03:45:15;;;;;;;;;;;;;;;23.38;49.70;101353.16;5052040;28;19924;-72
2023/07/13 03:47:40;;;;;;;;;;;;;;;23.38;49.70;101355.88;5052796;28;19920;-71
2023/07/13 03:50:06;;;;;;;;;;;;;;;23.37;49.73;101364.22;5066156;28;19913;-71
2023/07/13 03:52:31;;;;;;;;;;;;;;;23.37;49.73;101361.50;5054488;28;20368;-72
2023/07/13 03:54:56;;;;;;;;;;;;;;;23.37;50.06;101369.63;5051273;28;19960;-72
2023/07/13 03:57:22;;;;;;;;;;;;;;;23.36;50.03;101366.06;5053361;28;19920;-72
2023/07/13 03:59:48;;;;;;;;;;;;;;;23.35;49.81;101358.09;5084103;28;20501;-74
2023/07/13 04:02:13;;;;;;;;;;;;;;;23.35;49.52;101364.38;5085920;28;19927;-72
2023/07/13 04:04:40;;;;;;;;;;;;;;;23.35;50.01;101363.53;5047433;28;19944;-74
2023/07/13 04:07:07;;;;;;;;;;;;;;;23.35;49.95;101374.38;5052107;28;20328;-77
2023/07/13 04:09:32;;;;;;;;;;;;;;;23.34;50.30;101376.25;5050220;28;19980;-77
2023/07/13 04:11:57;;;;;;;;;;;;;;;23.34;50.57;101378.13;5052145;28;19935;-77
2023/07/13 04:14:22;;;;;;;;;;;;;;;23.34;50.18;101373.53;5053099;28;20293;-75
2023/07/13 04:16:48;;;;;;;;;;;;;;;23.35;50.08;101382.53;5049134;28;19917;-75
2023/07/13 04:19:13;;;;;;;;;;;;;;;23.34;50.44;101383.56;5053415;28;19977;-75
2023/07/13 04:21:38;;;;;;;;;;;;;;;23.35;50.58;101385.25;5050690;28;19917;-76
2023/07/13 04:24:04;;;;;;;;;;;;;;;23.34;50.76;101384.41;5084035;28;20337;-75
2023/07/13 04:26:29;;;;;;;;;;;;;;;23.33;50.82;101374.59;5052803;28;19939;-76
2023/07/13 04:28:55;;;;;;;;;;;;;;;23.33;50.62;101382.72;5052324;28;20328;-74
2023/07/13 04:31:20;;;;;;;;;;;;;;;23.33;50.56;101388.16;5083935;28;19913;-75
2023/07/13 04:33:45;;;;;;;;;;;;;;;23.33;51.01;101390.88;5052684;28;19917;-72
2023/07/13 04:36:10;;;;;;;;;;;;;;;23.34;50.93;101394.41;5081714;28;19919;-72
2023/07/13 04:38:36;;;;;;;;;;;;;;;23.34;50.88;101383.56;5049189;28;19913;-71
2023/07/13 04:41:04;;;;;;;;;;;;;;;23.33;51.13;101379.19;5069038;28;19917;-74
2023/07/13 04:43:29;;;;;;;;;;;;;;;23.33;51.04;101381.88;5046076;28;19928;-74
2023/07/13 04:45:54;;;;;;;;;;;;;;;23.33;51.36;101385.44;5053191;28;19913;-74
2023/07/13 04:48:20;;;;;;;;;;;;;;;23.33;51.14;101387.31;5052096;28;19944;-73
2023/07/13 04:50:45;;;;;;;;;;;;;;;23.33;51.36;101387.31;5081948;28;19912;-83
2023/07/13 04:53:11;;;;;;;;;;;;;;;23.31;51.22;101389.34;5050284;28;19924;-69
2023/07/13 04:55:37;;;;;;;;;;;;;;;23.32;51.05;101385.59;5044898;28;19913;-80
2023/07/13 04:58:02;;;;;;;;;;;;;;;23.31;51.01;101387.47;5050352;28;19920;-78
2023/07/13 05:00:28;;;;;;;;;;;;;;;23.31;50.89;101392.91;5049233;28;19913;-78
2023/07/13 05:02:54;;;;;;;;;;;;;;;23.31;51.22;101395.63;5086946;28;19922;-76
2023/07/13 05:05:19;;;;;;;;;;;;;;;23.30;51.21;101396.66;5046343;28;19921;-76
2023/07/13 05:07:44;;;;;;;;;;;;;;;23.30;51.21;101396.66;5045974;28;19973;-78
2023/07/13 05:10:10;;;;;;;;;;;;;;;23.31;51.09;101405.63;5041659;28;20359;-75
2023/07/13 05:12:35;;;;;;;;;;;;;;;23.30;51.08;101403.97;5045925;28;20447;-75
2023/07/13 05:15:01;;;;;;;;;;;;;;;22.93;51.05;101354.97;5051511;28;19917;-75
2023/07/13 05:17:26;;;;;;;;;;;;;;;23.29;51.29;101408.53;5047812;28;19929;-77
2023/07/13 05:19:51;;;;;;;;;;;;;;;23.29;50.94;101416.69;5051894;28;19939;-75
2023/07/13 05:22:16;;;;;;;;;;;;;;;23.28;51.32;101415.00;5056236;28;20004;-76
2023/07/13 05:24:42;;;;;;;;;;;;;;;23.27;50.87;101421.44;5050657;28;20442;-75
2023/07/13 05:27:07;;;;;;;;;;;;;;;23.28;50.98;101419.56;5033007;28;19913;-75
2023/07/13 05:29:32;;;;;;;;;;;;;;;23.28;51.11;101419.56;5050199;28;19947;-75
2023/07/13 05:31:57;;;;;;;;;;;;;;;23.27;51.18;101426.88;5047378;28;19968;-74
2023/07/13 05:34:23;;;;;;;;;;;;;;;23.27;51.18;101426.03;5051617;28;19939;-76
2023/07/13 05:36:49;;;;;;;;;;;;;;;23.26;51.03;101427.91;5045596;28;20836;-80
2023/07/13 05:39:14;;;;;;;;;;;;;;;23.26;51.05;101430.59;5046769;28;19923;-82
2023/07/13 05:41:39;;;;;;;;;;;;;;;23.26;51.03;101436.03;5076120;28;19921;-81
2023/07/13 05:44:04;;;;;;;;;;;;;;;23.26;51.23;101432.47;5045074;28;19940;-81
2023/07/13 05:46:30;;;;;;;;;;;;;;;23.26;51.09;101444.19;5043098;28;19917;-81
2023/07/13 05:48:56;;;;;;;;;;;;;;;23.26;51.09;101446.03;5028177;28;19917;-81
2023/07/13 05:51:21;;;;;;;;;;;;;;;23.25;51.19;101450.63;5048609;28;19984;-81
2023/07/13 05:53:46;;;;;;;;;;;;;;;23.25;50.93;101442.50;5029620;28;20386;-80
2023/07/13 05:56:11;;;;;;;;;;;;;;;23.26;50.90;101440.63;5048506;28;19912;-71
2023/07/13 05:58:37;;;;;;;;;;;;;;;23.25;50.87;101439.78;5053424;28;19924;-79
2023/07/13 06:01:07;;;;;;;;;;;;;;;23.24;51.06;101451.66;5054349;28;19917;-80
2023/07/13 06:03:32;;;;;;;;;;;;;;;23.24;50.94;101451.66;5058290;28;19988;-80
2023/07/13 06:06:00;;;;;;;;;;;;;;;23.24;51.07;101459.81;5030408;28;19940;-81
2023/07/13 06:08:25;;;;;;;;;;;;;;;23.24;50.74;101451.66;5075322;28;19917;-81
2023/07/13 06:10:50;;;;;;;;;;;;;;;23.24;50.98;101464.41;5050785;28;19917;-81
2023/07/13 06:13:15;;;;;;;;;;;;;;;23.24;51.00;101472.53;5051663;28;19962;-80
2023/07/13 06:15:41;;;;;;;;;;;;;;;23.24;50.83;101464.41;5048874;28;19920;-80
2023/07/13 06:18:06;;;;;;;;;;;;;;;23.24;50.99;101464.41;5049942;28;19927;-79
2023/07/13 06:20:33;;;;;;;;;;;;;;;23.24;50.82;101476.09;5050935;28;19912;-80
2023/07/13 06:22:58;;;;;;;;;;;;;;;23.25;50.97;101479.63;5083340;28;19921;-79
2023/07/13 06:25:23;;;;;;;;;;;;;;;23.25;50.99;101480.47;5056622;28;19932;-80
2023/07/13 06:27:49;;;;;;;;;;;;;;;23.25;50.90;101476.94;5050404;28;19919;-83
2023/07/13 06:30:14;;;;;;;;;;;;;;;23.24;50.62;101478.81;5057390;28;19920;-79
2023/07/13 06:32:39;;;;;;;;;;;;;;;23.26;50.63;101473.19;5065940;28;19980;-81
2023/07/13 06:35:05;;;;;;;;;;;;;;;23.26;50.74;101476.72;5050321;28;20262;-80
2023/07/13 06:37:30;;;;;;;;;;;;;;;23.25;50.99;101480.47;5054853;28;19917;-80
2023/07/13 06:39:55;;;;;;;;;;;;;;;23.26;50.78;101481.31;5051259;28;19913;-80
2023/07/13 06:42:21;;;;;;;;;;;;;;;23.28;50.91;101481.97;5088577;28;19919;-81
2023/07/13 06:44:46;;;;;;;;;;;;;;;23.27;50.71;101489.25;5051172;28;19917;-81
2023/07/13 06:47:11;;;;;;;;;;;;;;;23.27;50.71;101493.84;5055946;28;19913;-81
2023/07/13 06:49:36;;;;;;;;;;;;;;;23.27;50.77;101491.97;5053628;28;20366;-80
2023/07/13 06:52:02;;;;;;;;;;;;;;;23.27;50.71;101491.97;5086622;28;19920;-80
2023/07/13 06:54:27;;;;;;;;;;;;;;;23.28;50.88;101484.69;5051034;28;19917;-80
2023/07/13 06:56:52;;;;;;;;;;;;;;;23.28;50.78;101484.69;5050879;28;19984;-80
2023/07/13 06:59:18;;;;;;;;;;;;;;;23.29;50.89;101495.38;5051377;28;19913;-81
2023/07/13 07:01:44;;;;;;;;;;;;;;;23.28;50.82;101490.97;5053036;28;19921;-80
2023/07/13 07:04:10;;;;;;;;;;;;;;;23.28;50.54;101496.41;5072899;28;19997;-81
2023/07/13 07:06:35;;;;;;;;;;;;;;;23.28;50.66;101488.25;5050774;28;19921;-80
2023/07/13 07:09:00;;;;;;;;;;;;;;;23.31;50.57;101492.47;5055639;28;19913;-80
2023/07/13 07:11:26;;;;;;;;;;;;;;;23.30;50.67;101493.50;5051455;28;19972;-80
2023/07/13 07:13:51;;;;;;;;;;;;;;;23.28;50.64;101496.41;5086860;28;19919;-81
2023/07/13 07:16:17;;;;;;;;;;;;;;;23.28;50.65;101490.97;5087560;28;19913;-81
2023/07/13 07:18:42;;;;;;;;;;;;;;;23.30;50.57;101504.34;5053359;28;19925;-80
2023/07/13 07:21:07;;;;;;;;;;;;;;;23.29;50.86;101495.38;5084287;28;19917;-80
2023/07/13 07:23:33;;;;;;;;;;;;;;;23.28;50.82;101496.41;5035873;28;19928;-80
2023/07/13 07:25:58;;;;;;;;;;;;;;;23.30;50.75;101504.34;5084030;28;19913;-80
2023/07/13 07:28:23;;;;;;;;;;;;;;;23.30;50.76;101498.91;5052969;28;19916;-81
2023/07/13 07:30:49;;;;;;;;;;;;;;;23.31;50.44;101509.56;5051843;28;19985;-80
2023/07/13 07:33:16;;;;;;;;;;;;;;;23.31;50.46;101506.03;5081416;28;19928;-80
2023/07/13 07:35:41;;;;;;;;;;;;;;;23.31;50.87;101501.44;5051960;28;19917;-81
2023/07/13 07:38:09;;;;;;;;;;;;;;;23.32;50.56;101502.28;5069607;28;19919;-81
2023/07/13 07:40:36;;;;;;;;;;;;;;;23.31;50.59;101498.72;5050492;28;19976;-81
2023/07/13 07:43:01;;;;;;;;;;;;;;;23.32;50.50;101502.28;5052562;28;19927;-81
2023/07/13 07:45:26;;;;;;;;;;;;;;;23.32;50.84;101507.69;5052600;28;19920;-80
2023/07/13 07:47:52;;;;;;;;;;;;;;;23.32;50.83;101496.84;5086055;28;19920;-81
2023/07/13 07:50:17;;;;;;;;;;;;;;;23.33;50.75;101501.28;5051440;28;19920;-81
2023/07/13 07:52:44;;;;;;;;;;;;;;;23.32;50.59;101492.28;5056266;28;20006;-81
2023/07/13 07:55:09;;;;;;;;;;;;;;;23.33;50.44;101493.13;5049028;28;20928;-81
2023/07/13 07:57:34;;;;;;;;;;;;;;;23.34;50.50;101489.38;5055406;28;19916;-81
2023/07/13 07:59:59;;;;;;;;;;;;;;;23.33;50.79;101490.41;5047824;28;19913;-81
2023/07/13 08:02:25;;;;;;;;;;;;;;;23.33;50.45;101482.28;5053401;28;20278;-81
2023/07/13 08:04:50;;;;;;;;;;;;;;;23.33;50.68;101479.56;5082668;28;19925;-80
2023/07/13 08:07:16;;;;;;;;;;;;;;;23.33;50.70;101490.41;5050231;28;19919;-81
2023/07/13 08:09:41;;;;;;;;;;;;;;;23.33;50.55;101487.72;5053687;28;19912;-81
2023/07/13 08:12:06;;;;;;;;;;;;;;;23.33;50.64;101495.84;5055167;28;19913;-81
2023/07/13 08:14:32;;;;;;;;;;;;;;;23.32;50.55;101497.72;5054390;28;19913;-80
2023/07/13 08:16:58;;;;;;;;;;;;;;;23.33;50.82;101504.81;5051210;28;19914;-81
2023/07/13 08:19:23;;;;;;;;;;;;;;;23.34;50.62;101502.94;5036601;28;19928;-81
2023/07/13 08:21:48;;;;;;;;;;;;;;;23.33;50.46;101504.81;5050019;28;19962;-81
2023/07/13 08:24:14;;;;;;;;;;;;;;;23.34;50.48;101506.50;5052830;28;19993;-81
2023/07/13 08:26:39;;;;;;;;;;;;;;;23.34;50.58;101506.50;5067879;28;20545;-80
2023/07/13 08:29:04;;;;;;;;;;;;;;;23.35;50.58;101504.63;5049974;28;19913;-81
2023/07/13 08:31:30;;;;;;;;;;;;;;;23.35;50.63;101499.19;5028192;28;19914;-81
2023/07/13 08:33:55;;;;;;;;;;;;;;;23.35;50.61;101504.63;5049598;28;19913;-81
2023/07/13 08:36:20;;;;;;;;;;;;;;;22.93;50.64;101432.78;5051725;28;19917;-82
2023/07/13 08:38:45;;;;;;;;;;;;;;;23.34;50.91;101502.94;5052992;28;19913;-82
2023/07/13 08:41:12;;;;;;;;;;;;;;;23.34;50.88;101497.53;5083762;28;20398;-81
2023/07/13 08:43:38;;;;;;;;;;;;;;;23.33;50.64;101504.81;5052616;28;20441;-81
2023/07/13 08:46:03;;;;;;;;;;;;;;;23.34;50.82;101509.22;5053437;28;19917;-80
2023/07/13 08:48:30;;;;;;;;;;;;;;;23.33;50.87;101502.13;5049955;28;19917;-81
2023/07/13 08:50:55;;;;;;;;;;;;;;;23.34;50.76;101511.94;5049240;28;19913;-80
2023/07/13 08:53:20;;;;;;;;;;;;;;;23.35;50.72;101507.34;5052801;28;20384;-81
2023/07/13 08:55:46;;;;;;;;;;;;;;;23.35;51.00;101507.34;5048295;28;20425;-80
2023/07/13 08:58:15;;;;;;;;;;;;;;;23.34;50.82;101501.06;5050653;28;20015;-81
2023/07/13 09:00:47;;;;;;;;;;;;;;;23.35;50.81;101499.19;5047461;28;19920;-81
2023/07/13 09:03:38;;;;;;;;;;;;;;;23.35;50.63;101504.63;5052104;28;19924;-81
2023/07/13 09:06:03;;;;;;;;;;;;;;;23.36;50.76;101506.31;5052724;28;19917;-80
2023/07/13 09:08:55;;;;;;;;;;;;;;;23.36;50.75;101496.31;5051125;28;19940;-80
2023/07/13 09:11:20;;;;;;;;;;;;;;;23.37;50.79;101499.88;5050011;28;19917;-81
2023/07/13 09:13:55;;;;;;;;;;;;;;;23.36;50.66;101504.47;5051754;28;19913;-81
2023/07/13 09:16:20;;;;;;;;;;;;;;;23.38;50.95;101498.84;5050259;28;19913;-81
2023/07/13 09:18:49;;;;;;;;;;;;;;;23.38;50.81;101498.84;5085680;28;19943;-81
2023/07/13 09:21:22;;;;;;;;;;;;;;;23.37;50.92;101500.72;5078433;28;19924;-81
2023/07/13 09:23:47;;;;;;;;;;;;;;;23.37;50.92;101494.44;5050475;28;19917;-81
2023/07/13 09:26:18;;;;;;;;;;;;;;;23.37;50.93;101498.00;5050506;28;20385;-80
2023/07/13 09:28:44;;;;;;;;;;;;;;;23.37;50.90;101502.59;5080940;28;19933;-80
2023/07/13 09:31:13;;;;;;;;;;;;;;;23.36;50.85;101500.88;5051654;28;19919;-80
2023/07/13 09:33:39;;;;;;;;;;;;;;;23.37;50.95;101497.16;5052382;28;19924;-81
2023/07/13 09:36:17;;;;;;;;;;;;;;;23.37;50.85;101508.03;5049141;28;19917;-81
2023/07/13 09:38:42;;;;;;;;;;;;;;;23.37;50.81;101502.59;5050582;28;19917;-82
2023/07/13 09:41:10;;;;;;;;;;;;;;;23.36;51.00;101499.03;5051065;28;19913;-81
2023/07/13 09:43:36;;;;;;;;;;;;;;;23.37;50.67;101511.56;5050678;28;19940;-81
2023/07/13 09:46:01;;;;;;;;;;;;;;;23.38;50.83;101506.97;5084308;28;19913;-82
2023/07/13 09:48:32;;;;;;;;;;;;;;;23.38;50.98;101509.69;5050526;28;19913;-81
2023/07/13 09:50:57;;;;;;;;;;;;;;;23.37;50.80;101517.00;5029927;28;19913;-80
2023/07/13 09:53:23;;;;;;;;;;;;;;;23.37;50.79;101517.00;5084301;28;20058;-75
2023/07/13 09:55:48;;;;;;;;;;;;;;;23.37;51.08;101518.88;5046795;28;20381;-79
2023/07/13 09:58:19;;;;;;;;;;;;;;;23.36;50.99;101518.03;5053316;28;19958;-77
2023/07/13 10:00:53;;;;;;;;;;;;;;;23.37;50.73;101522.44;5056084;28;19927;-77
2023/07/13 10:03:20;;;;;;;;;;;;;;;23.36;50.87;101522.59;5086774;28;19928;-76
2023/07/13 10:05:46;;;;;;;;;;;;;;;23.36;51.15;101530.72;5054134;28;19951;-77
2023/07/13 10:08:16;;;;;;;;;;;;;;;23.37;50.99;101543.28;5086577;28;19917;-77
2023/07/13 10:10:41;;;;;;;;;;;;;;;23.36;50.86;101542.47;5070009;28;20293;-77
2023/07/13 10:13:19;;;;;;;;;;;;;;;23.36;51.09;101539.75;5055825;28;19952;-77
2023/07/13 10:15:44;;;;;;;;;;;;;;;23.36;50.81;101539.75;5053230;28;19939;-76
2023/07/13 10:18:09;;;;;;;;;;;;;;;23.37;50.98;101546.84;5085054;28;20662;-78
2023/07/13 10:20:34;;;;;;;;;;;;;;;23.38;50.86;101550.41;5056484;28;19959;-77
2023/07/13 10:23:01;;;;;;;;;;;;;;;23.38;50.89;101550.41;5049073;28;19917;-76
2023/07/13 10:25:31;;;;;;;;;;;;;;;23.38;50.89;101556.66;5056220;28;19913;-76
2023/07/13 10:27:58;;;;;;;;;;;;;;;23.38;51.07;101556.66;5085173;28;20253;-76
2023/07/13 10:30:25;;;;;;;;;;;;;;;23.39;50.85;101557.50;5051896;28;19917;-77
2023/07/13 10:32:52;;;;;;;;;;;;;;;23.40;50.88;101556.47;5054119;28;19935;-75
2023/07/13 10:35:20;;;;;;;;;;;;;;;23.41;50.90;101569.03;5085977;28;19913;-75
2023/07/13 10:37:53;;;;;;;;;;;;;;;23.42;50.95;101565.28;5086815;28;19955;-77
2023/07/13 10:40:19;;;;;;;;;;;;;;;23.42;50.90;101555.28;5053871;28;19913;-75
2023/07/13 10:42:45;;;;;;;;;;;;;;;23.44;50.98;101563.22;5084622;28;20027;-77
2023/07/13 10:45:14;;;;;;;;;;;;;;;23.45;51.10;101562.22;5052352;28;20433;-76
2023/07/13 10:47:40;;;;;;;;;;;;;;;23.47;51.05;101554.72;5055352;28;19913;-76
2023/07/13 10:50:05;;;;;;;;;;;;;;;23.48;50.92;101558.28;5081724;28;19920;-77
2023/07/13 10:52:47;;;;;;;;;;;;;;;23.50;50.91;101575.25;5054861;28;19916;-76
2023/07/13 10:55:31;;;;;;;;;;;;;;;23.51;51.02;101568.78;5051860;28;20370;-77
2023/07/13 10:57:59;;;;;;;;;;;;;;;23.52;50.93;101576.72;5052791;28;19993;-76
2023/07/13 11:00:24;;;;;;;;;;;;;;;23.53;51.06;101572.13;5056784;28;19924;-77
2023/07/13 11:03:02;;;;;;;;;;;;;;;23.54;50.93;101576.56;5082320;28;19999;-77
2023/07/13 11:05:29;;;;;;;;;;;;;;;23.55;51.03;101576.38;5052216;28;20004;-76
2023/07/13 11:07:56;;;;;;;;;;;;;;;23.55;51.14;101572.81;5054254;28;19940;-77
2023/07/13 11:10:41;;;;;;;;;;;;;;;23.56;51.23;101585.34;5083761;28;19913;-77
2023/07/13 11:13:26;;;;;;;;;;;;;;;23.56;50.81;101580.75;5053727;28;20034;-77
2023/07/13 11:15:51;;;;;;;;;;;;;;;23.58;51.05;101575.19;5051398;28;19960;-77
2023/07/13 11:18:20;;;;;;;;;;;;;;;23.60;50.88;101581.25;5049464;28;19925;-77
2023/07/13 11:20:46;;;;;;;;;;;;;;;23.60;50.88;101579.38;5055978;28;19916;-77
2023/07/13 11:23:12;;;;;;;;;;;;;;;23.63;50.95;101586.31;5048029;28;19981;-77
2023/07/13 11:25:37;;;;;;;;;;;;;;;23.65;51.04;101574.25;5053446;28;19940;-77
2023/07/13 11:28:12;;;;;;;;;;;;;;;23.66;51.04;101578.69;5088149;28;19940;-76
2023/07/13 11:30:37;;;;;;;;;;;;;;;23.67;50.90;101577.66;5066742;28;19921;-77
2023/07/13 11:33:20;;;;;;;;;;;;;;;23.68;50.86;101576.63;5052931;28;19951;-77
2023/07/13 11:35:45;;;;;;;;;;;;;;;23.71;50.75;101578.13;5086107;28;19921;-77
2023/07/13 11:38:21;;;;;;;;;;;;;;;23.71;50.80;101580.84;5054782;28;19913;-77
2023/07/13 11:40:47;;;;;;;;;;;;;;;23.72;51.00;101574.38;5051908;28;19953;-77
2023/07/13 11:43:15;;;;;;;;;;;;;;;23.71;50.89;101572.72;5052179;28;19945;-79
2023/07/13 11:45:41;;;;;;;;;;;;;;;23.73;50.93;101575.22;5050413;28;19913;-72
2023/07/13 11:48:17;;;;;;;;;;;;;;;23.74;51.18;101574.19;5071603;28;19952;-81
2023/07/13 11:50:43;;;;;;;;;;;;;;;23.75;51.05;101570.47;5064486;28;20575;-78
2023/07/13 11:53:08;;;;;;;;;;;;;;;23.75;51.02;101582.16;5051915;28;19920;-76
2023/07/13 11:55:34;;;;;;;;;;;;;;;23.76;50.97;101583.00;5052713;28;19924;-75
2023/07/13 11:58:00;;;;;;;;;;;;;;;23.75;51.18;101578.63;5084955;28;19913;-74
2023/07/13 12:00:26;;;;;;;;;;;;;;;23.75;51.33;101584.88;5051661;28;20333;-75
2023/07/13 12:02:52;;;;;;;;;;;;;;;23.75;51.17;101581.31;5050182;28;19960;-74
2023/07/13 12:05:18;;;;;;;;;;;;;;;23.75;51.14;101581.31;5064727;28;20362;-78
2023/07/13 12:07:43;;;;;;;;;;;;;;;23.76;51.18;101569.44;5052765;28;19943;-76
2023/07/13 12:10:09;;;;;;;;;;;;;;;23.76;51.30;101572.16;5082621;28;19916;-75
2023/07/13 12:12:34;;;;;;;;;;;;;;;23.76;51.16;101588.44;5048796;28;19960;-79
2023/07/13 12:15:00;;;;;;;;;;;;;;;23.76;51.35;101596.59;5034613;28;19916;-76
2023/07/13 12:17:25;;;;;;;;;;;;;;;23.75;51.44;101628.31;5047278;28;19964;-74
2023/07/13 12:19:51;;;;;;;;;;;;;;;23.72;50.35;101612.41;5052097;28;19925;-79
2023/07/13 12:22:18;;;;;;;;;;;;;;;23.68;50.25;101616.50;5051466;28;19935;-77
2023/07/13 12:24:43;;;;;;;;;;;;;;;23.67;50.47;101603.97;5050973;28;19991;-78
2023/07/13 12:27:25;;;;;;;;;;;;;;;23.67;50.97;101604.81;5084550;28;19913;-78
2023/07/13 12:29:56;;;;;;;;;;;;;;;23.69;51.02;101604.59;5050840;28;20214;-81
2023/07/13 12:32:21;;;;;;;;;;;;;;;23.70;51.16;101603.56;5084483;28;19976;-81